createdAt,value
2018-06-04T00:01:14.631Z,85.23
2018-06-04T00:03:46.309Z,85.05
2018-06-04T00:06:19.380Z,85.02
2018-06-04T00:08:52.600Z,85.12
2018-06-04T00:11:23.792Z,85.37
2018-06-04T00:13:55.697Z,85.45
2018-06-04T00:16:29.182Z,85.07
2018-06-04T00:19:03.828Z,85.27
2018-06-04T00:21:36.805Z,85.12
2018-06-04T00:24:06.806Z,85.32
2018-06-04T00:26:40.023Z,85.41
2018-06-04T00:29:11.713Z,85.60
2018-06-04T00:31:43.298Z,85.35
2018-06-04T00:34:15.004Z,85.33
2018-06-04T00:36:46.462Z,85.92
2018-06-04T00:39:19.427Z,86.05
2018-06-04T00:41:51.053Z,85.61
2018-06-04T00:44:25.527Z,85.82
2018-06-04T00:46:59.715Z,86.02
2018-06-04T00:49:32.102Z,85.78
2018-06-04T00:52:02.414Z,85.52
2018-06-04T00:54:37.036Z,85.69
2018-06-04T00:57:09.352Z,85.86
2018-06-04T00:59:42.910Z,85.87
2018-06-04T01:02:14.302Z,85.74
2018-06-04T01:04:45.895Z,85.69
2018-06-04T01:07:19.121Z,85.84
2018-06-04T01:09:50.906Z,85.89
2018-06-04T01:12:24.974Z,86.02
2018-06-04T01:14:58.173Z,85.95
2018-06-04T01:17:31.889Z,85.91
2018-06-04T01:20:04.851Z,86.11
2018-06-04T01:22:36.961Z,86.17
2018-06-04T01:25:10.107Z,86.25
2018-06-04T01:27:43.483Z,86.82
2018-06-04T01:30:19.293Z,86.76
2018-06-04T01:32:52.225Z,87.06
2018-06-04T01:35:25.032Z,87.14
2018-06-04T01:37:56.618Z,87.26
2018-06-04T01:40:28.348Z,87.26
2018-06-04T01:43:01.684Z,87.26
2018-06-04T01:45:33.506Z,87.65
2018-06-04T01:48:04.029Z,87.46
2018-06-04T01:50:36.180Z,87.36
2018-06-04T01:53:07.881Z,87.66
2018-06-04T01:55:39.572Z,87.73
2018-06-04T01:58:12.837Z,87.61
2018-06-04T02:00:42.998Z,87.59
2018-06-04T02:03:16.219Z,87.68
2018-06-04T02:05:48.015Z,87.90
2018-06-04T02:08:19.784Z,87.84
2018-06-04T02:10:49.801Z,87.93
2018-06-04T02:13:23.026Z,87.93
2018-06-04T02:15:54.606Z,88.03
2018-06-04T02:18:27.805Z,88.14
2018-06-04T02:21:02.493Z,88.15
2018-06-04T02:23:34.137Z,88.12
2018-06-04T02:26:08.772Z,88.18
2018-06-04T02:28:40.228Z,88.10
2018-06-04T02:31:13.500Z,88.04
2018-06-04T02:33:45.065Z,88.23
2018-06-04T02:36:16.712Z,88.25
2018-06-04T02:38:50.131Z,88.09
2018-06-04T02:41:24.376Z,88.01
2018-06-04T02:43:54.388Z,87.91
2018-06-04T02:46:28.814Z,87.35
2018-06-04T02:49:00.420Z,87.17
2018-06-04T02:51:32.474Z,87.33
2018-06-04T02:54:03.324Z,86.80
2018-06-04T02:56:36.432Z,86.89
2018-06-04T02:59:07.212Z,86.93
2018-06-04T03:01:37.876Z,87.03
2018-06-04T03:04:08.189Z,86.80
2018-06-04T03:06:39.573Z,86.43
2018-06-04T03:09:12.002Z,86.37
2018-06-04T03:11:46.861Z,86.24
2018-06-04T03:14:21.207Z,86.19
2018-06-04T03:16:54.740Z,86.18
2018-06-04T03:19:29.251Z,85.97
2018-06-04T03:22:02.591Z,85.72
2018-06-04T03:24:34.564Z,85.98
2018-06-04T03:27:08.249Z,86.28
2018-06-04T03:29:41.402Z,85.97
2018-06-04T03:32:14.571Z,85.57
2018-06-04T03:34:47.244Z,85.36
2018-06-04T03:37:20.422Z,85.53
2018-06-04T03:39:52.179Z,85.42
2018-06-04T03:42:27.098Z,85.50
2018-06-04T03:45:01.636Z,85.54
2018-06-04T03:47:35.125Z,84.71
2018-06-04T03:50:06.898Z,84.42
2018-06-04T03:52:38.720Z,84.53
2018-06-04T03:55:11.729Z,84.31
2018-06-04T03:57:44.929Z,84.02
2018-06-04T04:00:17.943Z,84.83
2018-06-04T04:02:49.610Z,84.98
2018-06-04T04:05:22.765Z,84.54
2018-06-04T04:07:54.510Z,84.69
2018-06-04T04:10:26.132Z,83.92
2018-06-04T04:12:57.791Z,85.22
2018-06-04T04:15:29.325Z,85.33
2018-06-04T04:17:59.683Z,85.35
2018-06-04T04:20:30.482Z,84.54
2018-06-04T04:23:02.512Z,84.74
2018-06-04T04:25:35.507Z,84.41
2018-06-04T04:28:07.147Z,84.56
2018-06-04T04:30:40.260Z,84.25
2018-06-04T04:33:12.291Z,84.88
2018-06-04T04:35:47.008Z,84.62
2018-06-04T04:38:20.801Z,84.44
2018-06-04T04:40:52.690Z,84.16
2018-06-04T04:43:27.115Z,84.08
2018-06-04T04:46:01.724Z,84.12
2018-06-04T04:48:35.384Z,83.87
2018-06-04T04:51:09.874Z,83.51
2018-06-04T04:53:41.642Z,84.09
2018-06-04T04:56:13.871Z,84.10
2018-06-04T04:58:47.294Z,84.15
2018-06-04T05:01:19.032Z,83.49
2018-06-04T05:03:50.615Z,83.57
2018-06-04T05:06:23.974Z,83.10
2018-06-04T05:08:58.569Z,83.60
2018-06-04T05:11:32.108Z,83.30
2018-06-04T05:14:03.531Z,83.01
2018-06-04T05:16:36.531Z,82.37
2018-06-04T05:19:08.562Z,82.58
2018-06-04T05:21:41.619Z,81.82
2018-06-04T05:24:13.322Z,82.30
2018-06-04T05:26:44.820Z,81.97
2018-06-04T05:29:16.795Z,82.62
2018-06-04T05:31:50.030Z,82.33
2018-06-04T05:34:24.763Z,82.54
2018-06-04T05:36:56.355Z,82.77
2018-06-04T05:39:29.684Z,81.63
2018-06-04T05:42:02.726Z,80.12
2018-06-04T05:44:32.746Z,80.61
2018-06-04T05:47:04.430Z,80.89
2018-06-04T05:49:36.312Z,81.51
2018-06-04T05:52:09.436Z,80.89
2018-06-04T05:54:41.096Z,82.17
2018-06-04T05:57:14.953Z,80.99
2018-06-04T05:59:44.835Z,81.00
2018-06-04T06:02:17.316Z,81.36
2018-06-04T06:04:49.166Z,81.71
2018-06-04T06:07:24.109Z,81.29
2018-06-04T06:09:56.018Z,81.08
2018-06-04T06:12:29.468Z,81.24
2018-06-04T06:15:03.069Z,81.05
2018-06-04T06:17:37.847Z,80.03
2018-06-04T06:20:11.572Z,80.17
2018-06-04T06:22:44.802Z,78.76
2018-06-04T06:25:19.661Z,78.98
2018-06-04T06:27:52.729Z,79.67
2018-06-04T06:30:26.216Z,78.96
2018-06-04T06:32:56.924Z,78.75
2018-06-04T06:35:29.228Z,78.84
2018-06-04T06:38:00.906Z,76.85
2018-06-04T06:40:35.741Z,75.62
2018-06-04T06:43:08.802Z,75.03
2018-06-04T06:45:41.854Z,74.47
2018-06-04T06:48:15.635Z,75.06
2018-06-04T06:50:50.129Z,76.29
2018-06-04T06:53:21.845Z,74.18
2018-06-04T06:55:53.494Z,74.34
2018-06-04T06:58:26.523Z,74.54
2018-06-04T07:00:58.483Z,73.92
2018-06-04T07:03:33.251Z,75.55
2018-06-04T07:06:06.131Z,74.24
2018-06-04T07:08:39.541Z,75.26
2018-06-04T07:11:12.871Z,74.69
2018-06-04T07:13:42.888Z,74.10
2018-06-04T07:16:16.445Z,74.48
2018-06-04T07:18:49.422Z,73.58
2018-06-04T07:21:19.427Z,74.47
2018-06-04T07:23:50.919Z,73.18
2018-06-04T07:26:23.889Z,73.28
2018-06-04T07:28:56.916Z,73.30
2018-06-04T07:31:28.568Z,72.21
2018-06-04T07:34:01.826Z,73.21
2018-06-04T07:36:34.996Z,72.44
2018-06-04T07:39:11.081Z,72.34
2018-06-04T07:41:44.275Z,71.30
2018-06-04T07:44:19.045Z,72.66
2018-06-04T07:46:50.692Z,71.70
2018-06-04T07:49:22.288Z,69.90
2018-06-04T07:51:54.918Z,71.57
2018-06-04T07:54:28.101Z,68.76
2018-06-04T07:57:00.078Z,70.40
2018-06-04T07:59:32.948Z,68.81
2018-06-04T08:02:05.670Z,68.42
2018-06-04T08:04:38.614Z,69.67
2018-06-04T08:07:11.788Z,71.95
2018-06-04T08:09:43.448Z,70.27
2018-06-04T08:12:13.300Z,72.84
2018-06-04T08:14:46.143Z,71.72
2018-06-04T08:17:17.762Z,71.80
2018-06-04T08:19:52.280Z,71.65
2018-06-04T08:22:23.890Z,73.21
2018-06-04T08:24:54.476Z,73.21
2018-06-04T08:27:25.884Z,72.77
2018-06-04T08:29:57.509Z,72.64
2018-06-04T08:32:30.550Z,72.44
2018-06-04T08:35:03.930Z,73.11
2018-06-04T08:37:35.407Z,73.80
2018-06-04T08:40:09.091Z,72.04
2018-06-04T08:42:40.753Z,72.27
2018-06-04T08:45:15.414Z,71.21
2018-06-04T08:47:49.969Z,72.58
2018-06-04T08:50:20.063Z,70.87
2018-06-04T08:52:52.437Z,69.38
2018-06-04T08:55:24.397Z,71.41
2018-06-04T08:57:56.493Z,70.43
2018-06-04T09:00:28.405Z,72.86
2018-06-04T09:03:03.180Z,72.35
2018-06-04T09:05:35.558Z,70.14
2018-06-04T09:08:07.084Z,71.07
2018-06-04T09:10:42.039Z,70.48
2018-06-04T09:13:13.925Z,69.88
2018-06-04T09:15:46.039Z,70.85
2018-06-04T09:18:19.287Z,71.46
2018-06-04T09:20:49.251Z,69.12
2018-06-04T09:23:23.061Z,69.62
2018-06-04T09:25:56.703Z,67.77
2018-06-04T09:28:29.014Z,67.95
2018-06-04T09:31:00.504Z,68.62
2018-06-04T09:33:32.612Z,68.74
2018-06-04T09:36:02.577Z,68.53
2018-06-04T09:38:34.224Z,67.84
2018-06-04T09:41:07.165Z,68.81
2018-06-04T09:43:40.228Z,70.44
2018-06-04T09:46:10.209Z,68.79
2018-06-04T09:48:42.103Z,67.71
2018-06-04T09:51:13.612Z,69.67
2018-06-04T09:53:45.505Z,67.51
2018-06-04T09:56:16.141Z,70.09
2018-06-04T09:58:47.910Z,69.70
2018-06-04T10:01:22.477Z,69.45
2018-06-04T10:03:54.053Z,68.57
2018-06-04T10:06:27.063Z,68.60
2018-06-04T10:08:56.966Z,68.93
2018-06-04T10:11:28.396Z,69.64
2018-06-04T10:14:00.052Z,68.38
2018-06-04T10:16:31.610Z,67.64
2018-06-04T10:19:04.908Z,67.87
2018-06-04T10:21:38.052Z,67.89
2018-06-04T10:24:10.074Z,67.85
2018-06-04T10:26:43.380Z,67.14
2018-06-04T10:29:16.669Z,66.61
2018-06-04T10:31:49.624Z,67.42
2018-06-04T10:34:23.643Z,64.23
2018-06-04T10:36:56.471Z,66.22
2018-06-04T10:39:29.650Z,68.27
2018-06-04T10:42:02.817Z,65.99
2018-06-04T10:44:37.149Z,64.90
2018-06-04T10:47:10.074Z,67.79
2018-06-04T10:49:41.778Z,68.45
2018-06-04T10:52:12.602Z,68.03
2018-06-04T10:54:44.657Z,68.59
2018-06-04T10:57:19.493Z,69.02
2018-06-04T10:59:53.940Z,67.62
2018-06-04T11:02:27.868Z,70.42
2018-06-04T11:05:03.249Z,68.83
2018-06-04T11:07:37.881Z,67.08
2018-06-04T11:10:09.579Z,67.14
2018-06-04T11:12:43.935Z,66.99
2018-06-04T11:15:16.699Z,67.18
2018-06-04T11:17:50.443Z,63.17
2018-06-04T11:20:20.523Z,65.77
2018-06-04T11:22:53.306Z,65.50
2018-06-04T11:25:26.848Z,62.89
2018-06-04T11:27:58.738Z,63.64
2018-06-04T11:30:31.878Z,64.73
2018-06-04T11:33:06.384Z,61.28
2018-06-04T11:35:36.347Z,61.70
2018-06-04T11:38:09.274Z,61.28
2018-06-04T11:40:42.495Z,61.81
2018-06-04T11:43:15.411Z,57.07
2018-06-04T11:45:47.358Z,54.97
2018-06-04T11:48:17.373Z,57.90
2018-06-04T11:50:49.249Z,56.07
2018-06-04T11:53:22.308Z,58.18
2018-06-04T11:55:54.903Z,55.92
2018-06-04T11:58:26.559Z,60.65
2018-06-04T12:00:57.949Z,58.36
2018-06-04T12:03:32.327Z,55.49
2018-06-04T12:06:02.238Z,53.20
2018-06-04T12:08:33.712Z,56.60
2018-06-04T12:11:05.246Z,54.44
2018-06-04T12:13:39.617Z,52.12
2018-06-04T12:16:11.371Z,55.25
2018-06-04T12:18:42.783Z,57.74
2018-06-04T12:21:15.288Z,59.37
2018-06-04T12:23:48.716Z,58.52
2018-06-04T12:26:23.179Z,55.67
2018-06-04T12:28:57.571Z,56.56
2018-06-04T12:31:29.514Z,54.13
2018-06-04T12:34:03.772Z,53.18
2018-06-04T12:36:37.979Z,55.77
2018-06-04T12:39:11.915Z,52.05
2018-06-04T12:41:46.412Z,58.09
2018-06-04T12:44:19.328Z,55.01
2018-06-04T12:46:52.090Z,56.20
2018-06-04T12:49:23.555Z,53.88
2018-06-04T12:51:57.929Z,56.63
2018-06-04T12:54:29.643Z,57.40
2018-06-04T12:57:02.559Z,53.97
2018-06-04T12:59:33.960Z,49.78
2018-06-04T13:02:05.046Z,52.42
2018-06-04T13:04:37.937Z,50.97
2018-06-04T13:07:11.140Z,48.73
2018-06-04T13:09:44.011Z,50.16
2018-06-04T13:12:17.035Z,52.28
2018-06-04T13:14:48.497Z,55.39
2018-06-04T13:17:21.035Z,48.76
2018-06-04T13:19:50.946Z,53.41
2018-06-04T13:22:22.496Z,51.76
2018-06-04T13:24:53.989Z,57.73
2018-06-04T13:27:25.427Z,57.17
2018-06-04T13:29:58.358Z,54.77
2018-06-04T13:32:33.019Z,53.25
2018-06-04T13:35:05.841Z,55.62
2018-06-04T13:37:38.073Z,56.52
2018-06-04T13:40:10.836Z,52.55
2018-06-04T13:42:43.753Z,52.84
2018-06-04T13:45:18.068Z,50.13
2018-06-04T13:47:47.909Z,51.83
2018-06-04T13:50:19.790Z,51.02
2018-06-04T13:52:52.552Z,48.40
2018-06-04T13:55:23.904Z,51.38
2018-06-04T13:57:57.094Z,53.86
2018-06-04T14:00:27.008Z,52.75
2018-06-04T14:02:56.894Z,53.89
2018-06-04T14:05:30.188Z,56.93
2018-06-04T14:08:00.012Z,55.86
2018-06-04T14:10:29.908Z,55.68
2018-06-04T14:13:00.726Z,57.30
2018-06-04T14:15:33.754Z,54.82
2018-06-04T14:18:06.632Z,52.92
2018-06-04T14:20:36.539Z,57.32
2018-06-04T14:23:07.892Z,56.48
2018-06-04T14:25:42.344Z,57.74
2018-06-04T14:28:12.874Z,58.83
2018-06-04T14:30:43.259Z,56.07
2018-06-04T14:33:16.495Z,55.10
2018-06-04T14:35:49.455Z,55.17
2018-06-04T14:38:20.887Z,55.26
2018-06-04T14:40:50.808Z,55.74
2018-06-04T14:43:22.093Z,59.47
2018-06-04T14:45:55.441Z,57.36
2018-06-04T14:48:29.822Z,59.04
2018-06-04T14:51:01.214Z,58.00
2018-06-04T14:53:33.258Z,57.43
2018-06-04T14:56:03.303Z,57.70
2018-06-04T14:58:36.474Z,60.09
2018-06-04T15:01:08.870Z,59.97
2018-06-04T15:03:39.502Z,55.98
2018-06-04T15:06:12.326Z,60.70
2018-06-04T15:08:45.302Z,56.39
2018-06-04T15:11:19.604Z,56.52
2018-06-04T15:13:51.537Z,60.23
2018-06-04T15:16:24.406Z,59.26
2018-06-04T15:18:57.430Z,56.12
2018-06-04T15:21:28.935Z,59.39
2018-06-04T15:24:02.182Z,57.90
2018-06-04T15:26:33.501Z,59.62
2018-06-04T15:29:06.503Z,58.96
2018-06-04T15:31:37.872Z,57.90
2018-06-04T15:34:11.818Z,56.58
2018-06-04T15:36:42.289Z,57.66
2018-06-04T15:39:15.296Z,60.01
2018-06-04T15:41:48.552Z,62.10
2018-06-04T15:44:20.506Z,58.72
2018-06-04T15:46:50.397Z,59.14
2018-06-04T15:49:23.187Z,59.46
2018-06-04T15:51:55.195Z,61.55
2018-06-04T15:54:28.187Z,58.74
2018-06-04T15:57:01.176Z,59.22
2018-06-04T15:59:34.151Z,60.29
2018-06-04T16:02:09.511Z,60.64
2018-06-04T16:04:43.814Z,60.71
2018-06-04T16:07:15.472Z,59.32
2018-06-04T16:09:46.930Z,59.18
2018-06-04T16:12:21.739Z,61.22
2018-06-04T16:14:53.734Z,62.86
2018-06-04T16:17:26.321Z,64.14
2018-06-04T16:19:58.344Z,62.92
2018-06-04T16:22:29.222Z,61.50
2018-06-04T16:25:00.785Z,63.36
2018-06-04T16:27:31.162Z,64.00
2018-06-04T16:30:04.067Z,64.02
2018-06-04T16:32:33.194Z,63.23
2018-06-04T16:35:06.684Z,64.11
2018-06-04T16:37:38.609Z,64.43
2018-06-04T16:40:11.523Z,62.98
2018-06-04T16:42:44.423Z,63.63
2018-06-04T16:45:16.132Z,64.09
2018-06-04T16:47:47.579Z,64.00
2018-06-04T16:50:20.532Z,63.02
2018-06-04T16:52:50.613Z,63.55
2018-06-04T16:55:23.423Z,64.17
2018-06-04T16:57:54.774Z,64.91
2018-06-04T17:00:27.813Z,64.80
2018-06-04T17:03:00.653Z,64.69
2018-06-04T17:05:32.377Z,64.92
2018-06-04T17:08:03.736Z,65.10
2018-06-04T17:10:35.305Z,64.62
2018-06-04T17:13:06.377Z,66.20
2018-06-04T17:15:39.252Z,65.16
2018-06-04T17:18:11.628Z,64.92
2018-06-04T17:20:44.543Z,65.46
2018-06-04T17:23:16.085Z,65.56
2018-06-04T17:25:48.247Z,65.65
2018-06-04T17:28:22.284Z,65.88
2018-06-04T17:30:55.209Z,67.24
2018-06-04T17:33:26.744Z,67.91
2018-06-04T17:35:58.152Z,67.48
2018-06-04T17:38:31.405Z,69.27
2018-06-04T17:41:02.737Z,67.90
2018-06-04T17:43:34.047Z,67.82
2018-06-04T17:46:07.158Z,68.00
2018-06-04T17:48:37.045Z,69.82
2018-06-04T17:51:10.083Z,69.22
2018-06-04T17:53:42.436Z,68.78
2018-06-04T17:56:12.431Z,69.34
2018-06-04T17:58:46.746Z,69.40
2018-06-04T18:01:19.719Z,69.38
2018-06-04T18:03:49.310Z,70.34
2018-06-04T18:06:21.634Z,70.39
2018-06-04T18:08:54.632Z,70.62
2018-06-04T18:11:26.855Z,71.19
2018-06-04T18:13:58.424Z,70.16
2018-06-04T18:16:30.070Z,71.57
2018-06-04T18:19:01.813Z,70.81
2018-06-04T18:21:32.414Z,71.52
2018-06-04T18:24:03.902Z,71.07
2018-06-04T18:26:36.962Z,71.41
2018-06-04T18:29:11.403Z,71.89
2018-06-04T18:31:42.973Z,71.81
2018-06-04T18:34:14.971Z,71.88
2018-06-04T18:36:48.191Z,71.77
2018-06-04T18:39:20.268Z,72.41
2018-06-04T18:41:51.718Z,72.98
2018-06-04T18:44:23.405Z,72.13
2018-06-04T18:46:55.045Z,72.72
2018-06-04T18:49:28.351Z,72.41
2018-06-04T18:52:00.110Z,72.76
2018-06-04T18:54:34.932Z,73.45
2018-06-04T18:57:08.701Z,72.82
2018-06-04T18:59:40.940Z,72.73
2018-06-04T19:02:14.019Z,73.24
2018-06-04T19:04:46.148Z,73.40
2018-06-04T19:07:20.986Z,74.09
2018-06-04T19:09:52.818Z,73.88
2018-06-04T19:12:23.090Z,73.77
2018-06-04T19:14:56.204Z,74.77
2018-06-04T19:17:27.118Z,75.25
2018-06-04T19:19:58.637Z,74.89
2018-06-04T19:22:28.683Z,75.11
2018-06-04T19:25:03.509Z,76.05
2018-06-04T19:27:36.597Z,75.36
2018-06-04T19:30:10.890Z,76.11
2018-06-04T19:32:42.300Z,76.31
2018-06-04T19:35:12.359Z,76.18
2018-06-04T19:37:45.588Z,75.64
2018-06-04T19:40:17.518Z,74.89
2018-06-04T19:42:50.538Z,74.87
2018-06-04T19:45:23.492Z,74.57
2018-06-04T19:47:53.416Z,74.69
2018-06-04T19:50:26.331Z,74.42
2018-06-04T19:52:57.943Z,73.93
2018-06-04T19:55:29.861Z,74.71
2018-06-04T19:58:01.593Z,73.11
2018-06-04T20:00:36.501Z,73.27
2018-06-04T20:03:07.951Z,73.70
2018-06-04T20:05:41.091Z,74.47
2018-06-04T20:08:11.173Z,74.13
2018-06-04T20:10:45.457Z,74.34
2018-06-04T20:13:19.899Z,73.90
2018-06-04T20:15:54.477Z,73.31
2018-06-04T20:18:26.506Z,73.62
2018-06-04T20:21:01.417Z,73.50
2018-06-04T20:23:32.901Z,73.64
2018-06-04T20:26:05.910Z,74.21
2018-06-04T20:28:38.887Z,74.05
2018-06-04T20:31:13.602Z,73.49
2018-06-04T20:33:46.865Z,74.40
2018-06-04T20:36:18.437Z,74.24
2018-06-04T20:38:51.679Z,73.59
2018-06-04T20:41:24.904Z,74.02
2018-06-04T20:43:59.828Z,74.07
2018-06-04T20:46:34.267Z,73.97
2018-06-04T20:49:06.018Z,74.30
2018-06-04T20:51:36.018Z,73.99
2018-06-04T20:54:07.555Z,74.78
2018-06-04T20:56:39.364Z,74.23
2018-06-04T20:59:11.038Z,75.16
2018-06-04T21:01:44.299Z,75.41
2018-06-04T21:04:16.039Z,75.14
2018-06-04T21:06:48.981Z,75.02
2018-06-04T21:09:22.246Z,74.75
2018-06-04T21:11:53.751Z,75.63
2018-06-04T21:14:25.536Z,76.07
2018-06-04T21:16:57.190Z,75.52
2018-06-04T21:19:30.304Z,75.10
2018-06-04T21:22:02.081Z,75.57
2018-06-04T21:24:32.096Z,75.67
2018-06-04T21:27:06.698Z,74.94
2018-06-04T21:29:38.443Z,75.86
2018-06-04T21:32:11.502Z,75.85
2018-06-04T21:34:41.536Z,76.42
2018-06-04T21:37:13.643Z,75.17
2018-06-04T21:39:45.358Z,75.60
2018-06-04T21:42:18.528Z,75.16
2018-06-04T21:44:50.540Z,75.78
2018-06-04T21:47:22.182Z,75.67
2018-06-04T21:49:55.396Z,75.78
2018-06-04T21:52:28.568Z,75.50
2018-06-04T21:55:01.504Z,75.96
2018-06-04T21:57:33.112Z,75.30
2018-06-04T22:00:03.967Z,75.20
2018-06-04T22:02:37.066Z,75.56
2018-06-04T22:05:10.053Z,76.22
2018-06-04T22:07:43.736Z,76.59
2018-06-04T22:10:18.371Z,76.01
2018-06-04T22:12:51.034Z,76.40
2018-06-04T22:15:24.352Z,76.24
2018-06-04T22:17:58.748Z,76.49
2018-06-04T22:20:31.706Z,76.67
2018-06-04T22:23:05.179Z,76.87
2018-06-04T22:25:38.405Z,77.22
2018-06-04T22:28:11.769Z,77.17
2018-06-04T22:30:44.773Z,77.36
2018-06-04T22:33:19.555Z,77.40
2018-06-04T22:35:54.176Z,77.00
2018-06-04T22:38:27.145Z,77.23
2018-06-04T22:41:01.972Z,77.88
2018-06-04T22:43:34.426Z,78.28
2018-06-04T22:46:07.945Z,78.15
2018-06-04T22:48:42.601Z,78.45
2018-06-04T22:51:15.567Z,78.35
2018-06-04T22:53:47.107Z,78.29
2018-06-04T22:56:21.047Z,78.33
2018-06-04T22:58:52.652Z,78.20
2018-06-04T23:01:24.216Z,78.01
2018-06-04T23:03:56.988Z,78.00
2018-06-04T23:06:30.246Z,78.55
2018-06-04T23:09:01.912Z,78.89
2018-06-04T23:11:32.840Z,79.74
2018-06-04T23:14:07.395Z,78.59
2018-06-04T23:16:37.440Z,78.22
2018-06-04T23:19:09.981Z,78.60
2018-06-04T23:21:43.239Z,78.79
2018-06-04T23:24:15.554Z,78.65
2018-06-04T23:26:48.963Z,79.32
2018-06-04T23:29:21.425Z,78.66
2018-06-04T23:31:54.573Z,78.69
2018-06-04T23:34:24.663Z,79.80
2018-06-04T23:36:57.908Z,79.65
2018-06-04T23:39:31.550Z,79.35
2018-06-04T23:42:03.524Z,79.53
2018-06-04T23:44:38.052Z,79.48
2018-06-04T23:47:09.791Z,79.65
2018-06-04T23:49:41.344Z,80.25
2018-06-04T23:52:14.578Z,80.23
2018-06-04T23:54:46.176Z,80.47
2018-06-04T23:57:16.148Z,80.77
2018-06-04T23:59:50.862Z,80.88
